Time;durP1;ratioP1;P1;durP2;ratioP2;P2;SDS_P1;SDS_P2;PMS_P1;PMS_P2;Temp;Humidity;BMP_temperature;BMP_pressure;BME280_temperature;BME280_humidity;BME280_pressure;Samples;Min_cycle;Max_cycle;Signal;HPM_P1;HPM_P2
2024/01/09 00:00:50;;;;;;;0.95;0.38;;;-2.50;99.90;;;;;;5005286;28;20496;-72
2024/01/09 00:03:15;;;;;;;0.47;0.47;;;-2.40;99.90;;;;;;5010054;28;20516;-72
2024/01/09 00:05:41;;;;;;;0.30;0.30;;;-2.50;99.90;;;;;;5008401;28;20109;-72
2024/01/09 00:08:07;;;;;;;0.13;0.13;;;-2.50;99.90;;;;;;5020470;28;20648;-72
2024/01/09 00:10:33;;;;;;;0.50;0.50;;;-2.50;99.90;;;;;;5009450;28;20033;-72
2024/01/09 00:12:59;;;;;;;0.50;0.43;;;-2.50;99.90;;;;;;5009453;28;20182;-71
2024/01/09 00:15:24;;;;;;;0.10;0.10;;;-2.50;99.90;;;;;;5015009;28;20080;-72
2024/01/09 00:17:51;;;;;;;1.13;0.52;;;-2.50;99.90;;;;;;5008119;28;20051;-71
2024/01/09 00:20:17;;;;;;;0.35;0.35;;;-2.60;99.90;;;;;;5008411;28;20037;-71
2024/01/09 00:22:43;;;;;;;0.82;0.55;;;-2.60;99.90;;;;;;5005886;28;20113;-72
2024/01/09 00:25:09;;;;;;;1.00;0.43;;;-2.60;99.90;;;;;;5015512;28;20060;-72
2024/01/09 00:27:35;;;;;;;1.52;0.52;;;-2.60;99.90;;;;;;5010492;28;20448;-71
2024/01/09 00:30:01;;;;;;;0.65;0.47;;;-2.60;99.90;;;;;;5009387;28;20034;-71
2024/01/09 00:32:27;;;;;;;1.80;0.43;;;-2.60;99.90;;;;;;5001787;28;20045;-72
2024/01/09 00:34:53;;;;;;;0.77;0.55;;;-2.60;99.90;;;;;;5010947;28;20049;-72
2024/01/09 00:37:19;;;;;;;0.43;0.43;;;-2.60;99.90;;;;;;5027889;28;20045;-71
2024/01/09 00:39:44;;;;;;;2.30;1.10;;;-2.70;99.90;;;;;;5013526;28;20057;-71
2024/01/09 00:42:10;;;;;;;1.00;0.45;;;-2.80;99.90;;;;;;5011466;28;20042;-71
2024/01/09 00:44:36;;;;;;;0.30;0.28;;;-2.70;99.90;;;;;;5013874;28;20045;-71
2024/01/09 00:47:02;;;;;;;2.05;0.95;;;-2.70;99.90;;;;;;5013128;28;20073;-71
2024/01/09 00:49:28;;;;;;;0.55;0.50;;;-2.80;99.90;;;;;;4996495;28;20115;-71
2024/01/09 00:51:54;;;;;;;0.45;0.32;;;-2.80;99.90;;;;;;5029269;28;20492;-72
2024/01/09 00:54:20;;;;;;;0.65;0.65;;;-2.80;99.90;;;;;;5013124;28;20500;-72
2024/01/09 00:56:46;;;;;;;3.22;1.00;;;-2.80;99.90;;;;;;5012774;28;20048;-72
2024/01/09 00:59:11;;;;;;;0.32;0.28;;;-2.90;99.90;;;;;;5013053;28;20508;-72
2024/01/09 01:01:37;;;;;;;0.20;0.20;;;-2.90;99.90;;;;;;5012250;28;20033;-71
2024/01/09 01:04:03;;;;;;;0.77;0.77;;;-2.90;99.90;;;;;;5012937;28;20041;-71
2024/01/09 01:06:29;;;;;;;0.35;0.35;;;-2.90;99.90;;;;;;5011023;28;20485;-71
2024/01/09 01:08:54;;;;;;;0.75;0.60;;;-3.00;99.90;;;;;;5013226;28;20041;-71
2024/01/09 01:11:20;;;;;;;0.55;0.30;;;-3.00;99.90;;;;;;5012419;28;20037;-71
2024/01/09 01:13:47;;;;;;;1.13;0.43;;;-3.00;99.90;;;;;;5013126;28;20103;-71
2024/01/09 01:16:12;;;;;;;0.17;0.17;;;-3.00;99.90;;;;;;5011582;28;20169;-71
2024/01/09 01:18:39;;;;;;;0.57;0.57;;;-3.00;99.90;;;;;;5011972;28;20076;-71
2024/01/09 01:21:04;;;;;;;1.58;0.50;;;-3.10;99.90;;;;;;5009364;28;20426;-71
2024/01/09 01:23:30;;;;;;;2.25;0.38;;;-3.10;99.90;;;;;;5011930;28;20088;-71
2024/01/09 01:25:56;;;;;;;1.23;0.65;;;-3.10;99.90;;;;;;5014210;28;20110;-71
2024/01/09 01:28:21;;;;;;;0.22;0.22;;;-3.10;99.90;;;;;;5011861;28;20041;-71
2024/01/09 01:30:47;;;;;;;0.68;0.45;;;-3.10;99.90;;;;;;5018315;28;20075;-71
2024/01/09 01:33:13;;;;;;;0.45;0.45;;;-3.20;99.90;;;;;;5026130;28;20428;-71
2024/01/09 01:35:38;;;;;;;2.00;0.85;;;-3.20;99.90;;;;;;5012725;28;20452;-71
2024/01/09 01:38:04;;;;;;;2.15;0.63;;;-3.20;99.90;;;;;;5009461;28;20111;-71
2024/01/09 01:40:30;;;;;;;0.63;0.45;;;-3.20;99.90;;;;;;4994381;28;20053;-71
2024/01/09 01:42:57;;;;;;;0.70;0.60;;;-3.20;99.90;;;;;;5018274;28;20060;-71
2024/01/09 01:45:24;;;;;;;0.05;0.05;;;-3.20;99.90;;;;;;5030584;28;20129;-71
2024/01/09 01:47:51;;;;;;;1.13;0.17;;;-3.30;99.90;;;;;;5008275;28;20045;-71
2024/01/09 01:50:16;;;;;;;0.00;0.00;;;-3.30;99.90;;;;;;5011915;28;20076;-71
2024/01/09 01:52:45;;;;;;;2.65;0.90;;;-3.30;99.90;;;;;;5021383;28;20516;-71
2024/01/09 01:55:11;;;;;;;0.88;0.40;;;-3.30;99.90;;;;;;5012617;28;20103;-71
2024/01/09 01:57:40;;;;;;;0.35;0.35;;;-3.30;99.90;;;;;;5008454;28;20061;-71
2024/01/09 02:00:07;;;;;;;0.30;0.30;;;-3.30;99.90;;;;;;5012722;28;20041;-71
2024/01/09 02:02:35;;;;;;;0.40;0.30;;;-3.30;99.90;;;;;;5011806;28;20077;-71
2024/01/09 02:05:02;;;;;;;0.00;0.00;;;-3.30;99.90;;;;;;5017651;28;20080;-71
2024/01/09 02:07:31;;;;;;;0.80;0.45;;;-3.30;99.90;;;;;;5019582;28;20104;-71
2024/01/09 02:09:58;;;;;;;1.15;0.68;;;-3.30;99.90;;;;;;5011928;28;20128;-71
2024/01/09 02:12:23;;;;;;;1.95;0.22;;;-3.30;99.90;;;;;;5011053;28;20063;-71
2024/01/09 02:14:49;;;;;;;0.40;0.40;;;-3.30;99.90;;;;;;5012270;28;20037;-71
2024/01/09 02:17:15;;;;;;;0.28;0.28;;;-3.30;99.90;;;;;;5007994;28;20045;-71
2024/01/09 02:19:41;;;;;;;0.75;0.55;;;-3.30;99.90;;;;;;5025005;28;20041;-71
2024/01/09 02:22:06;;;;;;;0.10;0.10;;;-3.40;99.90;;;;;;5021542;28;20046;-70
2024/01/09 02:24:32;;;;;;;2.70;1.23;;;-3.40;99.90;;;;;;5012124;28;20136;-70
2024/01/09 02:27:26;;;;;;;0.30;0.30;;;-3.40;99.90;;;;;;5017390;28;20512;-70
2024/01/09 02:29:53;;;;;;;2.10;0.43;;;-3.40;99.90;;;;;;5010359;28;20041;-71
2024/01/09 02:32:19;;;;;;;0.40;0.28;;;-3.40;99.90;;;;;;5010034;28;20072;-71
2024/01/09 02:34:46;;;;;;;0.75;0.65;;;-3.40;99.90;;;;;;5011310;28;20045;-71
2024/01/09 02:37:12;;;;;;;0.13;0.13;;;-3.40;99.90;;;;;;5010720;28;20049;-70
2024/01/09 02:39:38;;;;;;;1.05;0.73;;;-3.40;99.90;;;;;;5010905;28;20497;-71
2024/01/09 02:42:04;;;;;;;0.47;0.40;;;-3.40;99.90;;;;;;5011657;28;20041;-71
2024/01/09 02:44:29;;;;;;;0.70;0.38;;;-3.40;99.90;;;;;;5016004;28;20033;-71
2024/01/09 02:46:55;;;;;;;5.05;1.75;;;-3.40;99.90;;;;;;5028650;28;20376;-71
2024/01/09 02:49:21;;;;;;;0.20;0.20;;;-3.40;99.90;;;;;;5009144;28;20046;-71
2024/01/09 02:51:47;;;;;;;0.60;0.50;;;-3.40;99.90;;;;;;5010428;28;20124;-71
2024/01/09 02:54:13;;;;;;;0.00;0.00;;;-3.50;99.90;;;;;;5010792;28;20045;-71
2024/01/09 02:56:39;;;;;;;0.30;0.30;;;-3.40;99.90;;;;;;5010392;28;20385;-71
2024/01/09 02:59:06;;;;;;;0.30;0.30;;;-3.50;99.90;;;;;;5011740;28;20053;-70
2024/01/09 03:01:32;;;;;;;0.20;0.17;;;-3.50;99.90;;;;;;5011927;28;20377;-70
2024/01/09 03:03:57;;;;;;;1.05;0.80;;;-3.50;99.90;;;;;;4994153;28;20493;-71
2024/01/09 03:06:23;;;;;;;1.73;0.88;;;-3.50;99.90;;;;;;5027926;28;20056;-71
2024/01/09 03:08:49;;;;;;;0.22;0.22;;;-3.50;99.90;;;;;;5008670;28;20496;-71
2024/01/09 03:11:15;;;;;;;0.50;0.08;;;-3.50;99.90;;;;;;5009086;28;20049;-71
2024/01/09 03:13:41;;;;;;;0.20;0.20;;;-3.50;99.90;;;;;;5010801;28;20089;-71
2024/01/09 03:16:14;;;;;;;0.80;0.52;;;-3.60;99.90;;;;;;5005896;28;20081;-71
2024/01/09 03:18:43;;;;;;;0.20;0.20;;;-3.60;99.90;;;;;;5010099;28;20103;-71
2024/01/09 03:21:12;;;;;;;1.65;1.20;;;-3.60;99.90;;;;;;5022069;28;20037;-72
2024/01/09 03:23:38;;;;;;;0.82;0.40;;;-3.60;99.90;;;;;;5009931;28;20037;-71
2024/01/09 03:26:04;;;;;;;0.20;0.20;;;-3.70;99.90;;;;;;4994190;28;20547;-71
2024/01/09 03:28:29;;;;;;;0.55;0.17;;;-3.70;99.90;;;;;;5008884;28;20037;-71
2024/01/09 03:30:55;;;;;;;0.75;0.68;;;-3.70;99.90;;;;;;5029810;28;20078;-71
2024/01/09 03:33:21;;;;;;;3.33;0.50;;;-3.70;99.90;;;;;;5009745;28;20184;-71
2024/01/09 03:35:47;;;;;;;1.30;0.40;;;-3.70;99.90;;;;;;5011064;28;20099;-71
2024/01/09 03:38:13;;;;;;;0.50;0.50;;;-3.70;99.90;;;;;;5008389;28;20404;-71
2024/01/09 03:40:38;;;;;;;1.00;0.50;;;-3.80;99.90;;;;;;5010708;28;20053;-71
2024/01/09 03:43:07;;;;;;;0.28;0.28;;;-3.70;99.90;;;;;;5008845;28;20046;-70
2024/01/09 03:45:32;;;;;;;0.22;0.22;;;-3.80;99.90;;;;;;4994487;28;20404;-71
2024/01/09 03:47:58;;;;;;;0.98;0.75;;;-3.80;99.90;;;;;;5012069;28;20053;-71
2024/01/09 03:50:24;;;;;;;0.43;0.15;;;-3.80;99.90;;;;;;5011152;28;20449;-72
2024/01/09 03:52:50;;;;;;;0.15;0.15;;;-3.80;99.90;;;;;;5007783;28;20037;-71
2024/01/09 03:55:16;;;;;;;1.58;0.88;;;-3.80;99.90;;;;;;5028300;28;20065;-71
2024/01/09 03:57:42;;;;;;;0.30;0.30;;;-3.80;99.90;;;;;;5009608;28;20100;-71
2024/01/09 04:00:08;;;;;;;0.30;0.30;;;-3.80;99.90;;;;;;5010728;28;20048;-71
2024/01/09 04:02:34;;;;;;;0.93;0.57;;;-3.90;99.90;;;;;;5007980;28;20258;-70
2024/01/09 04:05:01;;;;;;;2.05;0.75;;;-3.80;99.90;;;;;;5011012;28;20404;-71
2024/01/09 04:07:27;;;;;;;0.43;0.22;;;-3.80;99.90;;;;;;5005542;28;20041;-70
2024/01/09 04:09:53;;;;;;;0.43;0.40;;;-3.80;99.90;;;;;;4999355;28;20045;-70
2024/01/09 04:12:18;;;;;;;1.63;0.65;;;-3.90;99.90;;;;;;5014424;28;20033;-70
2024/01/09 04:14:44;;;;;;;0.28;0.28;;;-3.90;99.90;;;;;;5010207;28;20042;-71
2024/01/09 04:17:10;;;;;;;0.28;0.28;;;-3.90;99.90;;;;;;5009427;28;20077;-70
2024/01/09 04:19:39;;;;;;;0.20;0.20;;;-3.90;99.90;;;;;;5010164;28;20505;-69
2024/01/09 04:22:06;;;;;;;0.30;0.30;;;-3.90;99.90;;;;;;5009388;28;20098;-70
2024/01/09 04:24:33;;;;;;;0.77;0.45;;;-3.90;99.90;;;;;;5009389;28;20147;-70
2024/01/09 04:26:58;;;;;;;0.52;0.40;;;-3.90;99.90;;;;;;5010108;28;20049;-70
2024/01/09 04:29:25;;;;;;;0.45;0.43;;;-3.90;99.90;;;;;;5009759;28;20095;-70
2024/01/09 04:31:51;;;;;;;1.88;0.40;;;-3.90;99.90;;;;;;5010295;28;20041;-70
2024/01/09 04:34:17;;;;;;;0.52;0.38;;;-3.90;99.90;;;;;;5010080;28;20106;-70
2024/01/09 04:36:43;;;;;;;0.20;0.20;;;-3.90;99.90;;;;;;5007825;28;20183;-70
2024/01/09 04:39:08;;;;;;;1.35;0.30;;;-4.00;99.90;;;;;;5006847;28;20141;-71
2024/01/09 04:41:34;;;;;;;1.42;0.80;;;-4.00;99.90;;;;;;4977002;28;20054;-71
2024/01/09 04:44:00;;;;;;;0.82;0.70;;;-4.00;99.90;;;;;;4985750;28;20128;-72
2024/01/09 04:46:25;;;;;;;0.38;0.38;;;-4.00;99.90;;;;;;4981833;28;20072;-71
2024/01/09 04:48:51;;;;;;;0.05;0.03;;;-4.00;99.90;;;;;;4989114;28;20114;-70
2024/01/09 04:51:17;;;;;;;1.52;0.60;;;-4.00;99.90;;;;;;4988222;28;20053;-71
2024/01/09 04:53:42;;;;;;;0.47;0.32;;;-4.10;99.90;;;;;;4988206;28;20405;-71
2024/01/09 04:56:08;;;;;;;0.47;0.47;;;-4.10;99.90;;;;;;4985083;28;20097;-71
2024/01/09 04:58:34;;;;;;;1.45;0.22;;;-4.10;99.90;;;;;;5004893;28;20045;-71
2024/01/09 05:01:00;;;;;;;1.65;1.45;;;-4.10;99.90;;;;;;4988489;28;20120;-72
2024/01/09 05:03:26;;;;;;;0.52;0.50;;;-4.10;99.90;;;;;;4988020;28;20038;-71
2024/01/09 05:05:51;;;;;;;0.35;0.35;;;-4.10;99.90;;;;;;4987139;28;20034;-71
2024/01/09 05:08:17;;;;;;;2.72;0.70;;;-4.20;99.90;;;;;;4989252;28;20080;-71
2024/01/09 05:10:43;;;;;;;4.68;1.02;;;-4.20;99.90;;;;;;4985140;28;20034;-71
2024/01/09 05:13:09;;;;;;;0.95;0.50;;;-4.20;99.90;;;;;;4990166;28;20096;-71
2024/01/09 05:15:35;;;;;;;0.40;0.40;;;-4.20;99.90;;;;;;4987793;28;20049;-71
2024/01/09 05:18:01;;;;;;;0.10;0.10;;;-4.20;99.90;;;;;;4990652;28;20049;-71
2024/01/09 05:20:27;;;;;;;14.02;1.27;;;-4.30;99.90;;;;;;4988103;28;20041;-71
2024/01/09 05:22:54;;;;;;;0.32;0.28;;;-4.30;99.90;;;;;;4993527;28;20038;-70
2024/01/09 05:25:19;;;;;;;0.47;0.25;;;-4.30;99.90;;;;;;4993159;28;20429;-71
2024/01/09 05:27:45;;;;;;;1.17;0.95;;;-4.30;99.90;;;;;;4991277;28;20045;-71
2024/01/09 05:30:11;;;;;;;0.00;0.00;;;-4.30;99.90;;;;;;4977275;28;21382;-71
2024/01/09 05:32:37;;;;;;;0.77;0.22;;;-4.40;99.90;;;;;;4989195;28;20104;-71
2024/01/09 05:35:03;;;;;;;0.30;0.30;;;-4.40;99.90;;;;;;4986807;28;20585;-71
2024/01/09 05:37:28;;;;;;;0.68;0.28;;;-4.40;99.90;;;;;;4975317;28;20042;-70
2024/01/09 05:39:54;;;;;;;0.63;0.52;;;-4.40;99.90;;;;;;5004407;28;20073;-70
2024/01/09 05:42:20;;;;;;;0.20;0.20;;;-4.40;99.90;;;;;;5017940;28;20501;-72
2024/01/09 05:44:46;;;;;;;1.08;0.52;;;-4.40;99.90;;;;;;4997354;28;20044;-71
2024/01/09 05:47:12;;;;;;;1.67;1.58;;;-4.40;99.90;;;;;;5020624;28;20041;-72
2024/01/09 05:49:37;;;;;;;0.10;0.10;;;-4.40;99.90;;;;;;5012926;28;20278;-71
2024/01/09 05:52:03;;;;;;;0.20;0.20;;;-4.40;99.90;;;;;;5010553;28;20114;-71
2024/01/09 05:54:29;;;;;;;0.55;0.35;;;-4.40;99.90;;;;;;5012812;28;20056;-71
2024/01/09 05:56:55;;;;;;;0.20;0.15;;;-4.40;99.90;;;;;;5012672;28;20574;-72
2024/01/09 05:59:20;;;;;;;1.02;0.57;;;-4.40;99.90;;;;;;5012779;28;20095;-72
2024/01/09 06:01:46;;;;;;;0.13;0.13;;;-4.40;99.90;;;;;;5011241;28;20034;-71
2024/01/09 06:04:12;;;;;;;0.20;0.20;;;-4.40;99.90;;;;;;5013063;28;20052;-72
2024/01/09 06:06:38;;;;;;;1.38;0.17;;;-4.50;99.90;;;;;;5011902;28;20047;-72
2024/01/09 06:09:03;;;;;;;1.30;0.93;;;-4.50;99.90;;;;;;5012652;28;20507;-72
2024/01/09 06:11:29;;;;;;;0.10;0.10;;;-4.40;99.90;;;;;;5021226;28;20060;-72
2024/01/09 06:13:55;;;;;;;0.30;0.30;;;-4.50;99.90;;;;;;5011169;28;20342;-71
2024/01/09 06:16:22;;;;;;;2.92;0.90;;;-4.50;99.90;;;;;;5011775;28;20144;-71
2024/01/09 06:18:48;;;;;;;1.95;0.93;;;-4.50;99.90;;;;;;5011400;28;20049;-72
2024/01/09 06:21:14;;;;;;;0.77;0.47;;;-4.50;99.90;;;;;;5021340;28;20041;-72
2024/01/09 06:23:39;;;;;;;0.98;0.52;;;-4.50;99.90;;;;;;5012752;28;20139;-72
2024/01/09 06:26:05;;;;;;;1.83;0.40;;;-4.50;99.90;;;;;;5011316;28;20515;-72
2024/01/09 06:28:33;;;;;;;0.25;0.20;;;-4.50;99.90;;;;;;5014012;28;20285;-72
2024/01/09 06:30:59;;;;;;;0.82;0.63;;;-4.60;99.90;;;;;;5012553;28;20037;-72
2024/01/09 06:33:25;;;;;;;0.30;0.30;;;-4.60;99.90;;;;;;5011925;28;20086;-72
2024/01/09 06:35:51;;;;;;;0.65;0.63;;;-4.50;99.90;;;;;;5012183;28;20041;-72
2024/01/09 06:38:16;;;;;;;0.68;0.50;;;-4.60;99.90;;;;;;5020491;28;20077;-71
2024/01/09 06:40:42;;;;;;;0.38;0.35;;;-4.60;99.90;;;;;;5002012;28;20264;-72
2024/01/09 06:43:08;;;;;;;0.63;0.63;;;-4.60;99.90;;;;;;5015098;28;20052;-71
2024/01/09 06:45:35;;;;;;;0.57;0.45;;;-4.60;99.90;;;;;;5011008;28;20133;-69
2024/01/09 06:48:00;;;;;;;0.55;0.55;;;-4.60;99.90;;;;;;5010736;28;20052;-71
2024/01/09 06:50:26;;;;;;;0.30;0.30;;;-4.60;99.90;;;;;;5015374;28;20046;-70
2024/01/09 06:52:52;;;;;;;0.20;0.20;;;-4.70;99.90;;;;;;4997935;28;20049;-70
2024/01/09 06:55:18;;;;;;;0.50;0.50;;;-4.70;99.90;;;;;;4996996;28;20037;-72
2024/01/09 06:57:43;;;;;;;0.65;0.65;;;-4.70;99.90;;;;;;4994207;28;20111;-72
2024/01/09 07:00:10;;;;;;;0.10;0.10;;;-4.70;99.90;;;;;;4995713;28;20041;-71
2024/01/09 07:02:35;;;;;;;0.10;0.10;;;-4.70;99.90;;;;;;5015304;28;20080;-71
2024/01/09 07:05:03;;;;;;;0.20;0.20;;;-4.70;99.90;;;;;;4994625;28;20480;-71
2024/01/09 07:07:29;;;;;;;0.52;0.40;;;-4.70;99.90;;;;;;5005982;28;20117;-71
2024/01/09 07:09:56;;;;;;;1.02;0.63;;;-4.70;99.90;;;;;;5011151;28;20465;-71
2024/01/09 07:12:22;;;;;;;0.70;0.43;;;-4.70;99.90;;;;;;5008555;28;20049;-71
2024/01/09 07:14:47;;;;;;;0.30;0.30;;;-4.70;99.90;;;;;;4974651;28;20057;-72
2024/01/09 07:17:13;;;;;;;0.43;0.28;;;-4.70;99.90;;;;;;4993831;28;20038;-71
2024/01/09 07:19:39;;;;;;;0.10;0.10;;;-4.80;99.90;;;;;;4996898;28;20091;-72
2024/01/09 07:22:05;;;;;;;0.55;0.55;;;-4.80;99.90;;;;;;5006399;28;20133;-71
2024/01/09 07:24:31;;;;;;;0.30;0.30;;;-4.80;99.90;;;;;;5014703;28;20558;-71
2024/01/09 07:26:56;;;;;;;0.52;0.43;;;-4.80;99.90;;;;;;5007682;28;20234;-70
2024/01/09 07:29:22;;;;;;;0.95;0.85;;;-4.80;99.90;;;;;;5015652;28;20033;-72
2024/01/09 07:31:48;;;;;;;0.40;0.40;;;-4.80;99.90;;;;;;5000557;28;20119;-71
2024/01/09 07:34:14;;;;;;;0.50;0.50;;;-4.80;99.90;;;;;;5015928;28;20187;-71
2024/01/09 07:36:40;;;;;;;0.90;0.40;;;-4.80;99.90;;;;;;4996159;28;20037;-71
2024/01/09 07:39:07;;;;;;;1.27;0.75;;;-4.80;99.90;;;;;;5016112;28;20132;-71
2024/01/09 07:41:32;;;;;;;0.45;0.38;;;-4.90;99.90;;;;;;5009910;28;20052;-71
2024/01/09 07:43:58;;;;;;;0.60;0.20;;;-4.90;99.90;;;;;;5010303;28;20037;-71
2024/01/09 07:46:24;;;;;;;0.52;0.52;;;-4.90;99.90;;;;;;5009120;28;20052;-71
2024/01/09 07:48:49;;;;;;;0.77;0.55;;;-4.90;99.90;;;;;;5010290;28;20060;-71
2024/01/09 07:51:15;;;;;;;0.35;0.35;;;-4.90;99.90;;;;;;5014485;28;20044;-71
2024/01/09 07:53:41;;;;;;;0.00;0.00;;;-4.90;99.90;;;;;;4993981;28;20052;-71
2024/01/09 07:56:33;;;;;;;0.43;0.43;;;-4.90;99.90;;;;;;5008060;28;20045;-71
2024/01/09 07:58:58;;;;;;;0.20;0.20;;;-4.90;99.90;;;;;;5007154;28;20046;-71
2024/01/09 08:01:24;;;;;;;0.25;0.20;;;-4.90;99.90;;;;;;5007821;28;20507;-71
2024/01/09 08:03:50;;;;;;;0.00;0.00;;;-4.90;99.90;;;;;;5010647;28;20111;-71
2024/01/09 08:06:16;;;;;;;0.38;0.38;;;-4.90;99.90;;;;;;5008612;28;20041;-71
2024/01/09 08:08:42;;;;;;;0.38;0.38;;;-4.90;99.90;;;;;;4978305;28;20065;-71
2024/01/09 08:11:09;;;;;;;0.70;0.20;;;-4.90;99.90;;;;;;5008068;28;20335;-71
2024/01/09 08:13:36;;;;;;;0.30;0.30;;;-4.90;99.90;;;;;;5011370;28;20081;-70
2024/01/09 08:16:02;;;;;;;1.55;0.32;;;-4.80;99.90;;;;;;5007834;28;20396;-71
2024/01/09 08:18:29;;;;;;;1.45;0.45;;;-4.80;99.90;;;;;;5007779;28;20215;-71
2024/01/09 08:20:55;;;;;;;0.55;0.55;;;-4.80;99.90;;;;;;5025815;28;20033;-71
2024/01/09 08:23:22;;;;;;;1.15;0.98;;;-4.80;99.90;;;;;;5009495;28;20123;-72
2024/01/09 08:25:47;;;;;;;5.22;1.65;;;-4.80;99.90;;;;;;5011017;28;20413;-72
2024/01/09 08:28:13;;;;;;;0.20;0.20;;;-4.80;99.90;;;;;;5010397;28;20394;-70
2024/01/09 08:30:39;;;;;;;0.75;0.50;;;-4.80;99.90;;;;;;5009029;28;20092;-71
2024/01/09 08:33:04;;;;;;;0.22;0.22;;;-4.80;99.90;;;;;;5015558;28;20497;-72
2024/01/09 08:35:30;;;;;;;0.63;0.50;;;-4.80;99.90;;;;;;5010252;28;20074;-71
2024/01/09 08:37:56;;;;;;;0.55;0.45;;;-4.80;99.90;;;;;;5009096;28;20133;-70
2024/01/09 08:40:22;;;;;;;2.35;0.40;;;-4.70;99.90;;;;;;5009056;28;20132;-71
2024/01/09 08:42:48;;;;;;;0.47;0.20;;;-4.70;99.90;;;;;;5013651;28;20117;-71
2024/01/09 08:45:16;;;;;;;1.30;0.55;;;-4.70;99.90;;;;;;5010485;28;20048;-71
2024/01/09 08:47:41;;;;;;;0.00;0.00;;;-4.70;99.90;;;;;;5008243;28;20124;-71
2024/01/09 08:50:07;;;;;;;2.28;1.00;;;-4.70;99.90;;;;;;5010003;28;20579;-71
2024/01/09 08:52:37;;;;;;;4.95;0.93;;;-4.70;99.90;;;;;;5009928;28;20393;-71
2024/01/09 08:55:04;;;;;;;0.80;0.43;;;-4.60;99.90;;;;;;5012769;28;20111;-71
2024/01/09 08:57:30;;;;;;;1.63;0.38;;;-4.60;99.90;;;;;;5013930;28;20033;-71
2024/01/09 08:59:57;;;;;;;0.30;0.30;;;-4.60;99.90;;;;;;5014047;28;20073;-70
2024/01/09 09:02:24;;;;;;;0.20;0.20;;;-4.60;99.90;;;;;;5011493;28;20037;-71
2024/01/09 09:04:50;;;;;;;1.38;0.50;;;-4.50;99.90;;;;;;5011724;28;20273;-71
2024/01/09 09:07:20;;;;;;;0.65;0.57;;;-4.50;99.90;;;;;;5017932;28;20629;-71
2024/01/09 09:09:45;;;;;;;0.40;0.20;;;-4.50;99.90;;;;;;5030210;28;20129;-70
2024/01/09 09:12:12;;;;;;;0.10;0.10;;;-4.50;99.90;;;;;;5012775;28;20362;-71
2024/01/09 09:14:37;;;;;;;0.95;0.93;;;-4.40;99.90;;;;;;5014039;28;20396;-71
2024/01/09 09:17:03;;;;;;;1.27;0.88;;;-4.30;99.90;;;;;;5013109;28;20039;-71
2024/01/09 09:19:31;;;;;;;0.55;0.22;;;-4.30;99.90;;;;;;5014026;28;20071;-71
2024/01/09 09:21:57;;;;;;;0.43;0.43;;;-4.30;99.90;;;;;;5012617;28;20431;-70
2024/01/09 09:24:23;;;;;;;0.20;0.20;;;-4.30;99.90;;;;;;5010226;28;20033;-72
2024/01/09 09:26:49;;;;;;;3.30;0.32;;;-4.20;99.90;;;;;;5012131;28;20125;-71
2024/01/09 09:29:15;;;;;;;1.38;0.43;;;-4.20;99.90;;;;;;5012768;28;20529;-72
2024/01/09 09:31:40;;;;;;;0.40;0.25;;;-4.10;99.90;;;;;;4999655;28;20068;-71
2024/01/09 09:34:07;;;;;;;0.30;0.30;;;-4.20;99.90;;;;;;5013406;28;20144;-72
2024/01/09 09:36:32;;;;;;;0.60;0.57;;;-4.10;99.90;;;;;;5010261;28;20053;-73
2024/01/09 09:38:58;;;;;;;2.38;0.85;;;-4.00;99.90;;;;;;5013020;28;20127;-72
2024/01/09 09:41:24;;;;;;;0.90;0.57;;;-4.00;99.90;;;;;;5013159;28;20763;-72
2024/01/09 09:43:56;;;;;;;0.08;0.08;;;-4.00;99.90;;;;;;5012084;28;20041;-72
2024/01/09 09:46:26;;;;;;;1.05;0.43;;;-3.90;99.90;;;;;;5012861;28;20043;-73
2024/01/09 09:48:54;;;;;;;1.23;1.05;;;-3.90;99.90;;;;;;5013132;28;20380;-73
2024/01/09 09:51:24;;;;;;;1.70;0.88;;;-3.90;99.90;;;;;;5011483;28;20045;-73
2024/01/09 09:53:52;;;;;;;0.68;0.45;;;-3.90;99.90;;;;;;5012753;28;20099;-73
2024/01/09 09:56:18;;;;;;;3.47;0.50;;;-3.80;99.90;;;;;;5011615;28;20285;-72
2024/01/09 09:58:44;;;;;;;0.35;0.35;;;-3.70;99.90;;;;;;5012629;28;20041;-73
2024/01/09 10:01:12;;;;;;;0.10;0.10;;;-3.70;99.90;;;;;;5012716;28;20084;-73
2024/01/09 10:03:54;;;;;;;0.30;0.30;;;-3.60;99.90;;;;;;5010268;28;20041;-73
2024/01/09 10:06:21;;;;;;;0.20;0.20;;;-3.50;99.90;;;;;;5011522;28;20037;-73
2024/01/09 10:08:49;;;;;;;0.85;0.50;;;-3.60;99.90;;;;;;5012397;28;20041;-73
2024/01/09 10:11:15;;;;;;;3.03;1.25;;;-3.50;99.90;;;;;;5011320;28;20045;-73
2024/01/09 10:13:41;;;;;;;0.75;0.63;;;-3.50;99.90;;;;;;5012791;28;20373;-73
2024/01/09 10:16:08;;;;;;;0.47;0.47;;;-3.50;99.90;;;;;;5019992;28;20049;-73
2024/01/09 10:18:35;;;;;;;2.28;0.55;;;-3.40;99.90;;;;;;5022168;28;20404;-73
2024/01/09 10:21:02;;;;;;;0.30;0.30;;;-3.30;99.90;;;;;;5012054;28;20073;-73
2024/01/09 10:23:29;;;;;;;3.35;0.80;;;-3.30;99.90;;;;;;5012301;28;20112;-73
2024/01/09 10:25:55;;;;;;;0.75;0.63;;;-3.20;99.90;;;;;;5011600;28;20040;-73
2024/01/09 10:28:22;;;;;;;1.35;0.65;;;-3.20;99.90;;;;;;4995627;28;20088;-74
2024/01/09 10:30:51;;;;;;;0.30;0.30;;;-3.10;99.90;;;;;;5012161;28;20120;-73
2024/01/09 10:33:17;;;;;;;0.55;0.47;;;-3.10;99.90;;;;;;5012377;28;20087;-74
2024/01/09 10:35:43;;;;;;;0.00;0.00;;;-3.00;99.90;;;;;;5012152;28;20052;-74
2024/01/09 10:38:13;;;;;;;1.00;0.73;;;-3.00;99.90;;;;;;5011268;28;20121;-73
2024/01/09 10:40:39;;;;;;;0.85;0.85;;;-3.00;99.90;;;;;;5009855;28;20107;-74
2024/01/09 10:43:04;;;;;;;0.80;0.40;;;-2.90;99.90;;;;;;5012275;28;20500;-72
2024/01/09 10:45:31;;;;;;;0.57;0.57;;;-2.90;99.90;;;;;;5012113;28;20045;-73
2024/01/09 10:47:58;;;;;;;0.32;0.32;;;-2.90;99.90;;;;;;5012171;28;20065;-72
2024/01/09 10:50:25;;;;;;;0.10;0.10;;;-2.80;99.90;;;;;;4995511;28;20067;-73
2024/01/09 10:52:51;;;;;;;0.73;0.57;;;-2.80;99.90;;;;;;4993693;28;20392;-72
2024/01/09 10:55:18;;;;;;;2.17;1.30;;;-2.70;99.90;;;;;;5012216;28;20049;-73
2024/01/09 10:57:47;;;;;;;1.83;0.90;;;-2.60;99.90;;;;;;5011062;28;20041;-73
2024/01/09 11:00:14;;;;;;;1.45;0.57;;;-2.60;99.90;;;;;;5010086;28;20037;-72
2024/01/09 11:02:40;;;;;;;0.43;0.25;;;-2.60;99.90;;;;;;5011524;28;20037;-73
2024/01/09 11:05:07;;;;;;;0.47;0.25;;;-2.50;99.90;;;;;;5012473;28;20041;-73
2024/01/09 11:07:33;;;;;;;4.05;0.90;;;-2.50;99.90;;;;;;5009679;28;20049;-72
2024/01/09 11:10:00;;;;;;;0.32;0.25;;;-2.50;99.90;;;;;;5012544;28;20404;-73
2024/01/09 11:12:41;;;;;;;0.03;0.03;;;-2.40;99.90;;;;;;5010754;28;20050;-72
2024/01/09 11:15:17;;;;;;;3.50;0.77;;;-2.30;99.90;;;;;;5013497;28;20123;-73
2024/01/09 11:17:50;;;;;;;2.30;0.45;;;-2.40;99.90;;;;;;5010543;28;20033;-73
2024/01/09 11:20:16;;;;;;;1.48;0.73;;;-2.30;99.90;;;;;;5010904;28;20041;-72
2024/01/09 11:22:42;;;;;;;1.55;0.43;;;-2.30;99.90;;;;;;5010547;28;20112;-72
2024/01/09 11:25:16;;;;;;;0.13;0.10;;;-2.30;99.90;;;;;;5011035;28;20116;-73
2024/01/09 11:27:46;;;;;;;1.45;0.55;;;-2.30;99.90;;;;;;5009941;28;20041;-73
2024/01/09 11:30:14;;;;;;;0.32;0.20;;;-2.20;99.90;;;;;;5011446;28;20030;-73
2024/01/09 11:32:41;;;;;;;0.10;0.10;;;-2.20;99.90;;;;;;5010603;28;20433;-73
2024/01/09 11:35:16;;;;;;;0.10;0.10;;;-2.10;99.90;;;;;;5009317;28;20158;-73
2024/01/09 11:37:47;;;;;;;1.17;0.70;;;-2.10;99.90;;;;;;5007989;28;20041;-74
2024/01/09 11:40:15;;;;;;;0.38;0.15;;;-2.10;99.90;;;;;;5004508;28;20058;-74
2024/01/09 11:42:51;;;;;;;1.13;0.43;;;-2.00;99.90;;;;;;4976493;28;20082;-74
2024/01/09 11:45:24;;;;;;;1.60;1.08;;;-2.00;99.90;;;;;;4976271;28;20046;-74
2024/01/09 11:47:53;;;;;;;2.30;0.65;;;-2.00;99.90;;;;;;4991925;28;20042;-74
2024/01/09 11:50:19;;;;;;;1.75;0.95;;;-2.00;99.90;;;;;;4991400;28;20046;-74
2024/01/09 11:52:47;;;;;;;2.17;1.02;;;-2.00;99.90;;;;;;4991893;28;20549;-74
2024/01/09 11:55:13;;;;;;;0.93;0.90;;;-1.90;99.90;;;;;;4991859;28;20049;-74
2024/01/09 11:57:42;;;;;;;0.73;0.55;;;-1.90;99.90;;;;;;4993192;28;20041;-75
2024/01/09 12:00:09;;;;;;;1.30;0.77;;;-1.90;99.90;;;;;;4993686;28;20079;-74
2024/01/09 12:02:39;;;;;;;1.15;0.75;;;-1.80;99.90;;;;;;4989717;28;20048;-74
2024/01/09 12:05:09;;;;;;;1.20;0.75;;;-1.80;99.90;;;;;;4993711;28;20296;-75
2024/01/09 12:07:39;;;;;;;0.73;0.43;;;-1.80;99.90;;;;;;4974303;28;20048;-75
2024/01/09 12:10:06;;;;;;;2.70;0.50;;;-1.70;99.90;;;;;;5003215;28;20111;-75
2024/01/09 12:12:32;;;;;;;1.73;0.43;;;-1.70;99.90;;;;;;4988837;28;20042;-74
2024/01/09 12:14:59;;;;;;;0.08;0.08;;;-1.70;99.90;;;;;;4996733;28;20168;-75
2024/01/09 12:17:37;;;;;;;0.10;0.10;;;-1.50;99.90;;;;;;4990172;28;20167;-74
2024/01/09 12:20:05;;;;;;;2.05;0.82;;;-1.60;99.90;;;;;;4990275;28;20117;-74
2024/01/09 12:22:33;;;;;;;6.13;1.17;;;-1.60;99.90;;;;;;4971863;28;20199;-74
2024/01/09 12:25:00;;;;;;;0.47;0.47;;;-1.50;99.90;;;;;;4989397;28;20034;-75
2024/01/09 12:27:27;;;;;;;0.30;0.30;;;-1.50;99.90;;;;;;4989448;28;20053;-75
2024/01/09 12:29:53;;;;;;;0.45;0.30;;;-1.50;99.90;;;;;;4994994;28;20115;-75
2024/01/09 12:32:22;;;;;;;0.40;0.40;;;-1.40;99.90;;;;;;4992121;28;20512;-75
2024/01/09 12:34:48;;;;;;;0.20;0.20;;;-1.50;99.90;;;;;;5011613;28;20038;-75
2024/01/09 12:37:14;;;;;;;0.20;0.20;;;-1.40;99.90;;;;;;4994532;28;20042;-74
2024/01/09 12:39:40;;;;;;;1.35;0.80;;;-1.40;99.90;;;;;;4986460;28;20064;-75
2024/01/09 12:42:16;;;;;;;3.22;2.88;;;-1.30;99.90;;;;;;4997626;28;20402;-74
2024/01/09 12:44:42;;;;;;;0.40;0.32;;;-1.30;99.90;;;;;;5015269;28;20073;-74